Data for 05/11/2010

Time Sea-Level Adjusted Pressure Absolute Pressure Temperature Relative Humidity Dew Point   
(mb) (inHg) (mb) (inHg) (C) (F) (%) (C) (F)
00:05 1013 29.91 842 24.86 5.8 42.5 63 -0.7 30.7
00:10 1013 29.91 842 24.86 5.8 42.4 63 -0.8 30.6
00:15 1013 29.91 842 24.86 5.8 42.4 63 -0.8 30.5
00:20 1013 29.91 842 24.86 5.8 42.4 63 -0.8 30.5
00:25 1013 29.91 842 24.86 5.7 42.3 63 -0.7 30.7
00:30 1013 29.91 842 24.86 5.7 42.2 63 -0.8 30.6
00:35 1013 29.91 842 24.86 5.7 42.2 63 -0.8 30.5
00:40 1013 29.91 842 24.86 5.6 42.1 63 -0.8 30.6
00:45 1013 29.91 842 24.86 5.5 41.9 64 -0.8 30.5
00:50 1013 29.91 842 24.86 5.5 41.8 64 -0.8 30.6
00:55 1013 29.91 842 24.86 5.4 41.8 64 -0.8 30.6
01:00 1013 29.91 842 24.86 5.5 41.8 65 -0.6 30.8
01:05 1013 29.91 842 24.86 5.5 41.8 65 -0.5 31.1
01:10 1013 29.91 842 24.86 5.4 41.8 65 -0.6 31
01:15 1013 29.91 842 24.86 5.4 41.8 66 -0.4 31.2
01:20 1013 29.91 842 24.86 5.4 41.8 66 -0.3 31.4
01:25 1013 29.91 842 24.86 5.3 41.6 67 -0.3 31.4
01:30 1013 29.91 842 24.86 5.3 41.5 68 -0.2 31.7
01:35 1013 29.91 842 24.86 5.3 41.5 67 -0.3 31.4
01:40 1012 29.88 842 24.86 5.3 41.5 67 -0.3 31.5
01:45 1012 29.88 842 24.86 5.3 41.5 68 -0.1 31.8
01:50 1012 29.88 842 24.86 5.2 41.3 69 -0 32
01:55 1012 29.88 842 24.86 5.1 41.1 70 -0 32
02:00 1012 29.88 842 24.86 5.1 41.1 70 0.1 32.1
02:05 1012 29.88 842 24.86 5 41 71 0.1 32.2
02:10 1012 29.88 841 24.83 5 41 71 0.1 32.1
02:15 1012 29.88 841 24.83 5 40.9 71 0.1 32.1
02:20 1012 29.88 841 24.83 4.9 40.9 71 0.1 32.2
02:25 1012 29.88 841 24.83 4.9 40.9 71 0.1 32.1
02:30 1012 29.88 842 24.86 4.9 40.9 70 0 32
02:35 1012 29.88 842 24.86 4.9 40.9 71 0.1 32.1
02:40 1012 29.88 842 24.86 4.9 40.9 71 0.1 32.1
02:45 1012 29.88 842 24.86 4.9 40.9 71 0.2 32.3
02:50 1012 29.88 842 24.86 4.9 40.9 70 -0.1 31.9
02:55 1012 29.88 842 24.86 5 41 71 0.1 32.2
03:00 1012 29.88 842 24.86 4.9 40.9 71 0.1 32.2
03:05 1012 29.88 842 24.86 4.9 40.9 71 0.1 32.2
03:10 1012 29.88 842 24.86 4.9 40.9 71 0.1 32.2
03:15 1012 29.88 842 24.86 4.9 40.8 71 0.2 32.3
03:20 1012 29.88 842 24.86 4.9 40.7 72 0.2 32.4
03:25 1012 29.88 842 24.86 4.8 40.6 72 0.2 32.3
03:30 1012 29.88 842 24.86 4.8 40.7 72 0.1 32.2
03:35 1012 29.88 842 24.86 4.9 40.7 71 0 32.1
03:40 1012 29.88 842 24.86 4.9 40.9 71 0.1 32.2
03:45 1012 29.88 841 24.83 4.9 40.9 71 0.1 32.2
03:50 1012 29.88 841 24.83 4.9 40.9 70 -0.1 31.9
03:55 1012 29.88 841 24.83 5 41 71 0.1 32.3
04:00 1012 29.88 841 24.83 4.9 40.9 71 0.1 32.1
04:05 1012 29.88 842 24.86 5 40.9 71 0.1 32.2
04:10 1012 29.88 842 24.86 5 40.9 71 0.1 32.1
04:15 1012 29.88 842 24.86 5 41 71 0.1 32.2
04:20 1013 29.91 842 24.86 4.9 40.9 72 0.2 32.4
04:25 1013 29.91 842 24.86 4.8 40.7 72 0.3 32.5
04:30 1013 29.91 842 24.86 4.8 40.6 72 0.3 32.5
04:35 1013 29.91 842 24.86 4.8 40.6 72 0.2 32.4
04:40 1013 29.91 842 24.86 4.8 40.6 72 0.2 32.4
04:45 1013 29.91 842 24.86 4.8 40.6 73 0.3 32.5
04:50 1013 29.91 842 24.86 4.7 40.5 72 0.1 32.3
04:55 1013 29.91 842 24.86 4.8 40.6 72 0.1 32.1
05:00 1013 29.91 842 24.86 4.8 40.6 71 -0 32
05:05 1013 29.91 842 24.86 4.8 40.6 71 -0 32
05:10 1013 29.91 842 24.86 4.8 40.7 71 0 32
05:15 1013 29.91 842 24.86 4.8 40.7 70 -0.2 31.6
05:20 1013 29.91 842 24.86 4.9 40.8 70 -0 31.9
05:25 1013 29.91 842 24.86 4.8 40.7 71 0.1 32.1
05:30 1013 29.91 842 24.86 4.7 40.5 73 0.3 32.5
05:35 1013 29.91 842 24.86 4.6 40.3 73 0.2 32.4
05:40 1013 29.91 842 24.86 4.7 40.4 72 0.1 32.2
05:45 1013 29.91 842 24.86 4.7 40.5 69 -0.4 31.3
05:50 1013 29.91 842 24.86 4.9 40.8 70 -0.1 31.9
05:55 1013 29.91 842 24.86 4.8 40.7 70 -0.2 31.7
06:00 1013 29.91 842 24.86 4.9 40.7 70 -0.2 31.7
06:05 1013 29.91 842 24.86 4.9 40.8 69 -0.3 31.5
06:10 1013 29.91 842 24.86 4.9 40.9 69 -0.2 31.6
06:15 1013 29.91 842 24.86 4.9 40.8 70 -0.2 31.7
06:20 1013 29.91 842 24.86 4.8 40.6 69 -0.3 31.4
06:25 1013 29.91 842 24.86 4.8 40.6 69 -0.4 31.2
06:30 1013 29.91 842 24.86 4.8 40.6 70 -0.2 31.6
06:35 1013 29.91 843 24.89 4.7 40.5 70 -0.3 31.5
06:40 1013 29.91 843 24.89 4.8 40.6 70 -0.2 31.6
06:45 1013 29.91 843 24.89 4.8 40.6 71 -0.1 31.9
06:50 1014 29.94 843 24.89 4.7 40.5 71 -0.1 31.9
06:55 1014 29.94 843 24.89 4.8 40.6 71 -0.1 31.8
07:00 1014 29.94 843 24.89 4.8 40.7 71 -0 31.9
07:05 1014 29.94 843 24.89 4.8 40.7 71 0.1 32.1
07:10 1014 29.94 843 24.89 4.8 40.7 71 0.1 32.2
07:15 1014 29.94 843 24.89 4.8 40.7 71 0 32
07:20 1014 29.94 843 24.89 4.9 40.7 71 0.1 32.2
07:25 1014 29.94 843 24.89 4.9 40.8 70 -0.1 31.9
07:30 1014 29.94 843 24.89 5 40.9 70 -0.1 31.9
07:35 1014 29.94 843 24.89 5 41 70 -0.1 31.8
07:40 1014 29.94 843 24.89 5.1 41.1 69 -0.2 31.7
07:45 1014 29.94 843 24.89 5.1 41.1 69 -0.1 31.8
07:50 1014 29.94 843 24.89 5 40.9 71 0.2 32.3
07:55 1014 29.94 843 24.89 5 40.9 70 -0.1 31.9
08:00 1014 29.94 843 24.89 5 41.1 69 -0.2 31.6
08:05 1014 29.94 843 24.89 5 41.1 70 -0.1 31.9
08:10 1014 29.94 843 24.89 5.1 41.1 70 0 32
08:15 1014 29.94 843 24.89 5.2 41.3 69 -0.1 31.9
08:20 1014 29.94 843 24.89 5.2 41.4 69 0.1 32.1
08:25 1014 29.94 843 24.89 5.2 41.4 70 0.1 32.2
08:30 1014 29.94 843 24.89 5.2 41.4 70 0.3 32.5
08:35 1014 29.94 843 24.89 5.1 41.1 73 0.6 33.1
08:40 1014 29.94 843 24.89 4.9 40.8 72 0.2 32.4
08:45 1014 29.94 843 24.89 5 41 70 0.1 32.1
08:50 1014 29.94 843 24.89 5.2 41.3 70 0.1 32.2
08:55 1014 29.94 843 24.89 5.1 41.2 68 -0.2 31.6
09:00 1014 29.94 843 24.89 5 41 70 0.1 32.1
09:05 1014 29.94 843 24.89 5 41 70 -0.1 31.8
09:10 1014 29.94 843 24.89 5 41.1 74 0.7 33.3
09:15 1014 29.94 844 24.92 4.8 40.6 78 1.2 34.1
09:20 1014 29.94 844 24.92 4.4 40 81 1.5 34.7
09:25 1014 29.94 844 24.92 4.2 39.5 81 1.2 34.2
09:30 1014 29.94 843 24.89 4.4 39.9 75 0.3 32.6
09:35 1014 29.94 844 24.92 4.9 40.7 72 0.2 32.3
09:40 1014 29.94 844 24.92 5.2 41.4 69 -0 32
09:45 1014 29.94 844 24.92 5.5 41.9 67 -0.2 31.6
09:50 1014 29.94 844 24.92 5.7 42.3 63 -0.7 30.7
09:55 1014 29.94 844 24.92 5.8 42.4 65 -0.4 31.3
10:00 1015 29.97 844 24.92 5.8 42.5 65 -0.3 31.4
10:05 1015 29.97 844 24.92 5.8 42.4 64 -0.6 30.9
10:10 1015 29.97 844 24.92 6 42.8 64 -0.4 31.4
10:15 1015 29.97 844 24.92 5.8 42.4 64 -0.6 31
10:20 1015 29.97 844 24.92 5.5 41.9 65 -0.6 30.9
10:25 1015 29.97 844 24.92 5.7 42.2 63 -0.8 30.6
10:30 1015 29.97 844 24.92 5.8 42.5 63 -0.6 31
10:35 1015 29.97 844 24.92 5.7 42.3 64 -0.5 31
10:40 1015 29.97 844 24.92 5.9 42.5 60 -1.3 29.6
10:45 1015 29.97 844 24.92 6 42.8 59 -1.4 29.4
10:50 1015 29.97 845 24.95 6.2 43.2 58 -1.3 29.6
10:55 1015 29.97 845 24.95 6.4 43.5 59 -1.1 30
11:00 1015 29.97 845 24.95 6.4 43.5 60 -0.8 30.5
11:05 1016 30 845 24.95 6.3 43.4 60 -0.9 30.4
11:10 1016 30 845 24.95 6.4 43.5 60 -0.8 30.5
11:15 1016 30 845 24.95 6.6 43.9 58 -1 30.1
11:20 1016 30 845 24.95 6.6 43.8 58 -1.1 30.1
11:25 1016 30 845 24.95 6.5 43.7 58 -1.1 30
11:30 1016 30 845 24.95 6.8 44.3 60 -0.4 31.3
11:35 1016 30 845 24.95 6 42.8 70 0.9 33.6
11:40 1016 30 845 24.95 5.5 41.9 68 0.1 32.2
11:45 1016 30 845 24.95 5.3 41.5 78 1.8 35.3
11:50 1016 30 845 24.95 5 41 74 0.8 33.5
11:55 1016 30 845 24.95 5.6 42.1 68 0.3 32.5
12:00 1016 30 845 24.95 6.1 43 65 -0 31.9
12:05 1016 30 845 24.95 6.5 43.7 60 -0.8 30.6
12:10 1016 30 845 24.95 6.3 43.3 64 -0.1 31.8
12:15 1016 30 845 24.95 6.3 43.3 62 -0.4 31.2
12:20 1016 30 845 24.95 6.3 43.3 62 -0.5 31.1
12:25 1016 30 845 24.95 6.2 43.2 64 -0.1 31.7
12:30 1016 30 845 24.95 5.6 42.1 70 0.5 32.9
12:35 1016 30 845 24.95 5.3 41.6 71 0.6 33.1
12:40 1016 30 845 24.95 5.4 41.7 73 1 33.9
12:45 1016 30 845 24.95 4.9 40.8 79 1.5 34.7
12:50 1016 30 845 24.95 4.6 40.3 77 1 33.8
12:55 1016 30 845 24.95 4.8 40.7 75 0.7 33.3
13:00 1016 30 845 24.95 4.8 40.7 75 0.7 33.3
13:05 1016 30 845 24.95 5.4 41.6 71 0.6 33
13:10 1016 30 845 24.95 5.5 42 67 -0 32
13:15 1016 30 845 24.95 5.6 42.1 65 -0.5 31.1
13:20 1016 30 845 24.95 5.6 42.1 66 -0.3 31.5
13:25 1016 30 846 24.98 5.4 41.7 66 -0.5 31.2
13:30 1016 30 846 24.98 5.6 42.2 62 -1 30.1
13:35 1016 30 846 24.98 6.2 43.2 59 -1.3 29.7
13:40 1016 30 846 24.98 6.1 43 58 -1.6 29.2
13:45 1016 30 846 24.98 6.2 43.2 57 -1.7 29
13:50 1016 30 846 24.98 6.1 43.1 56 -1.9 28.7
13:55 1016 30 846 24.98 6.2 43.2 57 -1.6 29.1
14:00 1017 30.03 846 24.98 6.1 42.9 58 -1.6 29.1
14:05 1017 30.03 846 24.98 6.2 43.2 58 -1.4 29.5
14:10 1017 30.03 846 24.98 6.2 43.2 61 -0.7 30.7
14:15 1017 30.03 846 24.98 6.1 43 62 -0.6 31
14:20 1017 30.03 846 24.98 6.1 43.1 62 -0.6 31
14:25 1017 30.03 846 24.98 6.1 43 61 -0.8 30.6
14:30 1017 30.03 846 24.98 6.3 43.3 61 -0.7 30.8
14:35 1017 30.03 846 24.98 6.2 43.1 62 -0.6 31
14:40 1017 30.03 846 24.98 6.4 43.5 61 -0.6 31
14:45 1017 30.03 846 24.98 6.5 43.8 57 -1.3 29.7
14:50 1017 30.03 846 24.98 6.6 44 60 -0.5 31.1
14:55 1017 30.03 846 24.98 6.4 43.5 63 -0.2 31.7
15:00 1017 30.03 846 24.98 6 42.7 76 2 35.6
15:05 1017 30.03 846 24.98 4.6 40.2 82 1.8 35.2
15:10 1017 30.03 847 25.01 3.8 38.8 85 1.5 34.7
15:15 1018 30.06 847 25.01 3.6 38.5 86 1.5 34.7
15:20 1017 30.03 847 25.01 4 39.1 83 1.4 34.5
15:25 1017 30.03 847 25.01 4.4 39.8 81 1.3 34.4
15:30 1017 30.03 847 25.01 4.7 40.4 77 1 33.9
15:35 1017 30.03 847 25.01 5 40.9 76 1.2 34.1
15:40 1017 30.03 847 25.01 5.5 41.8 72 0.7 33.3
15:45 1017 30.03 847 25.01 5.9 42.6 69 0.6 33.1
15:50 1017 30.03 846 24.98 6.3 43.3 66 0.4 32.8
15:55 1017 30.03 846 24.98 6.4 43.5 66 0.5 32.8
16:00 1017 30.03 846 24.98 6.5 43.7 62 -0.3 31.5
16:05 1017 30.03 846 24.98 6.9 44.4 61 -0.1 31.8
16:10 1017 30.03 847 25.01 6.8 44.2 63 0.2 32.3
16:15 1017 30.03 847 25.01 6.4 43.6 65 0.4 32.8
16:20 1017 30.03 847 25.01 6.3 43.3 65 0.2 32.4
16:25 1017 30.03 847 25.01 7 44.6 62 0.2 32.3
16:30 1017 30.03 847 25.01 6.8 44.2 63 0.2 32.3
16:35 1017 30.03 847 25.01 6.7 44.1 61 -0.2 31.7
16:40 1017 30.03 847 25.01 6.8 44.2 60 -0.4 31.3
16:45 1017 30.03 847 25.01 6.8 44.2 59 -0.7 30.8
16:50 1017 30.03 847 25.01 6.9 44.4 55 -1.6 29.1
16:55 1017 30.03 847 25.01 7.1 44.7 56 -1 30.2
17:00 1018 30.06 847 25.01 7.2 44.9 56 -1 30.2
17:05 1018 30.06 847 25.01 7.1 44.7 55 -1.3 29.7
17:10 1017 30.03 847 25.01 7.1 44.7 53 -1.9 28.6
17:15 1017 30.03 847 25.01 7.1 44.8 53 -1.7 28.9
17:20 1018 30.06 847 25.01 7.1 44.8 56 -1 30.1
17:25 1018 30.06 847 25.01 6.7 44 62 -0.1 31.7
17:30 1018 30.06 847 25.01 5.9 42.6 68 0.5 33
17:35 1018 30.06 847 25.01 5.4 41.7 69 0.2 32.3
17:40 1018 30.06 847 25.01 5.3 41.5 71 0.5 32.9
17:45 1018 30.06 847 25.01 5.1 41.2 72 0.5 32.9
17:50 1018 30.06 847 25.01 5 41 75 0.9 33.7
17:55 1018 30.06 848 25.04 4.8 40.7 73 0.4 32.8
18:00 1018 30.06 848 25.04 4.9 40.7 71 0.1 32.1
18:05 1018 30.06 848 25.04 4.9 40.9 72 0.3 32.6
18:10 1018 30.06 848 25.04 5.2 41.4 69 0.1 32.2
18:15 1018 30.06 848 25.04 5.4 41.6 69 0.2 32.4
18:20 1018 30.06 848 25.04 5.5 41.9 69 0.2 32.3
18:25 1018 30.06 848 25.04 5.5 41.9 66 -0.3 31.5
18:30 1018 30.06 848 25.04 5.5 41.9 67 -0.2 31.7
18:35 1018 30.06 848 25.04 5.7 42.2 66 -0.2 31.7
18:40 1018 30.06 847 25.01 5.4 41.8 66 -0.4 31.2
18:45 1018 30.06 847 25.01 5.4 41.8 67 -0.2 31.6
18:50 1018 30.06 847 25.01 5.4 41.6 69 0.2 32.4
18:55 1018 30.06 848 25.04 5.3 41.5 69 0.1 32.2
19:00 1018 30.06 848 25.04 5.1 41.1 72 0.4 32.7
19:05 1018 30.06 848 25.04 4.9 40.8 73 0.6 33
19:10 1018 30.06 848 25.04 4.9 40.8 73 0.4 32.7
19:15 1018 30.06 848 25.04 4.8 40.7 72 0.3 32.5
19:20 1018 30.06 848 25.04 4.8 40.7 72 0.1 32.2
19:25 1018 30.06 848 25.04 4.8 40.6 72 0.2 32.3
19:30 1018 30.06 848 25.04 4.8 40.6 72 0.2 32.3
19:35 1018 30.06 848 25.04 4.7 40.5 73 0.3 32.5
19:40 1019 30.09 848 25.04 4.7 40.4 73 0.3 32.6
19:45 1019 30.09 848 25.04 4.5 40.1 75 0.5 32.8
19:50 1019 30.09 848 25.04 4.3 39.8 77 0.6 33.2
19:55 1019 30.09 848 25.04 4.2 39.5 79 0.8 33.5
20:00 1019 30.09 848 25.04 4.1 39.3 79 0.8 33.5
20:05 1019 30.09 848 25.04 3.9 39.1 81 1 33.8
20:10 1019 30.09 848 25.04 3.9 39.1 82 1.1 33.9
20:15 1019 30.09 848 25.04 3.9 39.1 82 1.1 34
20:20 1019 30.09 848 25.04 3.9 39 82 1 33.8
20:25 1019 30.09 848 25.04 3.9 39.1 81 1 33.8
20:30 1019 30.09 848 25.04 3.9 38.9 80 0.7 33.3
20:35 1019 30.09 848 25.04 3.8 38.9 80 0.7 33.3
20:40 1019 30.09 848 25.04 3.8 38.8 80 0.6 33
20:45 1019 30.09 848 25.04 3.7 38.6 80 0.5 33
20:50 1019 30.09 849 25.07 3.6 38.5 80 0.4 32.8
20:55 1019 30.09 849 25.07 3.5 38.3 80 0.4 32.7
21:00 1019 30.09 849 25.07 3.4 38.2 81 0.5 32.8
21:05 1019 30.09 849 25.07 3.4 38.1 81 0.5 32.8
21:10 1019 30.09 849 25.07 3.3 38 82 0.5 33
21:15 1019 30.09 849 25.07 3.3 37.9 82 0.5 32.8
21:20 1019 30.09 849 25.07 3.3 37.9 82 0.5 32.8
21:25 1019 30.09 849 25.07 3.2 37.8 82 0.5 32.9
21:30 1020 30.12 849 25.07 3.2 37.8 82 0.5 32.9
21:35 1020 30.12 849 25.07 3.2 37.8 82 0.5 32.8
21:40 1020 30.12 849 25.07 3.3 37.9 82 0.5 32.9
21:45 1020 30.12 849 25.07 3.3 37.9 82 0.5 32.9
21:50 1020 30.12 849 25.07 3.5 38.2 80 0.3 32.6
21:55 1020 30.12 849 25.07 3.6 38.4 79 0.3 32.5
22:00 1020 30.12 849 25.07 3.7 38.6 78 0.3 32.5
22:05 1020 30.12 849 25.07 3.7 38.7 79 0.3 32.6
22:10 1020 30.12 849 25.07 3.7 38.7 78 0.3 32.6
22:15 1020 30.12 849 25.07 3.7 38.7 79 0.4 32.8
22:20 1020 30.12 849 25.07 3.7 38.7 78 0.3 32.5
22:25 1020 30.12 849 25.07 3.7 38.6 78 0.3 32.5
22:30 1020 30.12 849 25.07 3.7 38.6 79 0.3 32.6
22:35 1020 30.12 849 25.07 3.6 38.5 79 0.3 32.6
22:40 1020 30.12 849 25.07 3.6 38.5 79 0.3 32.6
22:45 1020 30.12 849 25.07 3.6 38.4 80 0.4 32.8
22:50 1020 30.12 849 25.07 3.6 38.4 80 0.5 32.9
22:55 1020 30.12 849 25.07 3.5 38.4 81 0.6 33.2
23:00 1020 30.12 849 25.07 3.5 38.2 82 0.7 33.2
23:05 1020 30.12 849 25.07 3.3 37.9 85 1 33.8
23:10 1020 30.12 849 25.07 3.1 37.5 85 0.7 33.3
23:15 1020 30.12 849 25.07 3 37.4 84 0.5 32.9
23:20 1020 30.12 849 25.07 3 37.4 85 0.7 33.2
23:25 1020 30.12 849 25.07 3 37.3 84 0.6 33
23:30 1020 30.12 849 25.07 3 37.4 83 0.4 32.8
23:35 1020 30.12 849 25.07 3 37.4 84 0.5 32.9
23:40 1020 30.12 849 25.07 3.1 37.5 83 0.4 32.7
23:45 1020 30.12 849 25.07 3.1 37.6 81 0.1 32.3
23:50 1020 30.12 849 25.07 3.2 37.8 81 0.3 32.5
23:55 1020 30.12 849 25.07 3.2 37.8 81 0.2 32.4
24:00 1020 30.12 849 25.07 3.3 38 81 0.3 32.5